KFST/FST METAR and TAF weather

Enter ICAO airport designator
Station Type Date Time Source
KFST METAR 2021/08/04 19:53 UTC NOAA

KFST 041953Z AUTO 12007KT 080V150 10SM FEW065 31/14 A3009 RMK AO2 SLP141 T03060139


Station Type Date Time Source
KFST Decoded METAR 2021/08/04 19:53 UTC NOAA

FORT STOCKTON PECOS CO AIRPORT , TX, United States (KFST) 30-55N 102-55W 918M
Aug 04, 2021 - 03:53 PM EDT / 2021.08.04 1953 UTC
Wind: from the ESE (120 degrees) at 8 MPH (7 KT) (direction variable):0
Visibility: 10 mile(s):0
Sky conditions: mostly clear
Temperature: 87.1 F (30.6 C)
Dew Point: 57.0 F (13.9 C)
Relative Humidity: 36%
Pressure (altimeter): 30.09 in. Hg (1018 hPa)
ob: KFST 041953Z AUTO 12007KT 080V150 10SM FEW065 31/14 A3009 RMK AO2 SLP141 T03060139
cycle: 20

Station Type Date Time Source
KFST TAF 2021/08/04 18:22 UTC NOAA

TAF KFST 041720Z 0418/0518 15007KT P6SM FEW100

Example: see airport list